sensor_id;sensor_type;location;lat;lon;timestamp;P1;durP1;ratioP1;P2;durP2;ratioP2
15240;SDS011;7723;52.170;9.978;2022-08-25T00:00:47;7.18;;;3.70;;
15240;SDS011;7723;52.170;9.978;2022-08-25T00:03:15;5.60;;;3.10;;
15240;SDS011;7723;52.170;9.978;2022-08-25T00:05:43;7.25;;;4.00;;
15240;SDS011;7723;52.170;9.978;2022-08-25T00:08:10;5.63;;;3.75;;
15240;SDS011;7723;52.170;9.978;2022-08-25T00:10:38;7.05;;;4.22;;
15240;SDS011;7723;52.170;9.978;2022-08-25T00:13:06;8.30;;;4.00;;
15240;SDS011;7723;52.170;9.978;2022-08-25T00:15:34;4.13;;;3.42;;
15240;SDS011;7723;52.170;9.978;2022-08-25T00:18:02;5.38;;;4.22;;
15240;SDS011;7723;52.170;9.978;2022-08-25T00:20:30;7.05;;;4.25;;
15240;SDS011;7723;52.170;9.978;2022-08-25T00:22:59;6.20;;;3.70;;
15240;SDS011;7723;52.170;9.978;2022-08-25T00:25:26;5.85;;;4.30;;
15240;SDS011;7723;52.170;9.978;2022-08-25T00:27:53;4.85;;;4.00;;
15240;SDS011;7723;52.170;9.978;2022-08-25T00:30:21;8.02;;;4.40;;
15240;SDS011;7723;52.170;9.978;2022-08-25T00:32:48;5.68;;;4.28;;
15240;SDS011;7723;52.170;9.978;2022-08-25T00:35:15;5.45;;;4.05;;
15240;SDS011;7723;52.170;9.978;2022-08-25T00:37:43;7.15;;;3.90;;
15240;SDS011;7723;52.170;9.978;2022-08-25T00:40:12;5.82;;;3.95;;
15240;SDS011;7723;52.170;9.978;2022-08-25T00:42:39;5.72;;;4.32;;
15240;SDS011;7723;52.170;9.978;2022-08-25T00:45:07;8.07;;;4.43;;
15240;SDS011;7723;52.170;9.978;2022-08-25T00:47:35;7.00;;;4.35;;
15240;SDS011;7723;52.170;9.978;2022-08-25T00:50:03;6.40;;;4.68;;
15240;SDS011;7723;52.170;9.978;2022-08-25T00:52:35;4.78;;;3.70;;
15240;SDS011;7723;52.170;9.978;2022-08-25T00:55:08;6.93;;;4.22;;
15240;SDS011;7723;52.170;9.978;2022-08-25T00:57:40;7.75;;;4.32;;
15240;SDS011;7723;52.170;9.978;2022-08-25T01:00:14;6.30;;;3.70;;
15240;SDS011;7723;52.170;9.978;2022-08-25T01:02:44;5.85;;;4.30;;
15240;SDS011;7723;52.170;9.978;2022-08-25T01:05:12;9.32;;;3.92;;
15240;SDS011;7723;52.170;9.978;2022-08-25T01:07:39;6.85;;;4.25;;
15240;SDS011;7723;52.170;9.978;2022-08-25T01:10:08;5.85;;;4.35;;
15240;SDS011;7723;52.170;9.978;2022-08-25T01:12:39;6.07;;;4.13;;
15240;SDS011;7723;52.170;9.978;2022-08-25T01:15:07;5.60;;;3.83;;
15240;SDS011;7723;52.170;9.978;2022-08-25T01:17:38;5.47;;;4.05;;
15240;SDS011;7723;52.170;9.978;2022-08-25T01:20:12;6.35;;;4.30;;
15240;SDS011;7723;52.170;9.978;2022-08-25T01:22:41;5.97;;;4.07;;
15240;SDS011;7723;52.170;9.978;2022-08-25T01:25:13;5.47;;;3.88;;
15240;SDS011;7723;52.170;9.978;2022-08-25T01:27:48;7.32;;;4.35;;
15240;SDS011;7723;52.170;9.978;2022-08-25T01:30:19;4.75;;;3.90;;
15240;SDS011;7723;52.170;9.978;2022-08-25T01:32:46;7.47;;;3.85;;
15240;SDS011;7723;52.170;9.978;2022-08-25T01:35:13;9.77;;;4.25;;
15240;SDS011;7723;52.170;9.978;2022-08-25T01:37:42;5.55;;;4.38;;
15240;SDS011;7723;52.170;9.978;2022-08-25T01:40:10;8.95;;;4.47;;
15240;SDS011;7723;52.170;9.978;2022-08-25T01:42:41;6.38;;;3.75;;
15240;SDS011;7723;52.170;9.978;2022-08-25T01:45:35;7.70;;;3.83;;
15240;SDS011;7723;52.170;9.978;2022-08-25T01:48:03;5.75;;;4.00;;
15240;SDS011;7723;52.170;9.978;2022-08-25T01:50:31;6.95;;;4.40;;
15240;SDS011;7723;52.170;9.978;2022-08-25T01:53:01;6.85;;;4.75;;
15240;SDS011;7723;52.170;9.978;2022-08-25T01:55:32;6.03;;;4.22;;
15240;SDS011;7723;52.170;9.978;2022-08-25T01:58:15;7.68;;;4.68;;
15240;SDS011;7723;52.170;9.978;2022-08-25T02:00:44;4.50;;;3.92;;
15240;SDS011;7723;52.170;9.978;2022-08-25T02:03:11;6.78;;;3.92;;
15240;SDS011;7723;52.170;9.978;2022-08-25T02:05:38;7.00;;;4.82;;
15240;SDS011;7723;52.170;9.978;2022-08-25T02:08:08;7.97;;;4.65;;
15240;SDS011;7723;52.170;9.978;2022-08-25T02:10:36;6.95;;;5.15;;
15240;SDS011;7723;52.170;9.978;2022-08-25T02:13:04;9.43;;;5.10;;
15240;SDS011;7723;52.170;9.978;2022-08-25T02:15:33;6.28;;;4.78;;
15240;SDS011;7723;52.170;9.978;2022-08-25T02:18:01;5.70;;;4.75;;
15240;SDS011;7723;52.170;9.978;2022-08-25T02:20:34;10.30;;;5.10;;
15240;SDS011;7723;52.170;9.978;2022-08-25T02:23:02;7.70;;;4.93;;
15240;SDS011;7723;52.170;9.978;2022-08-25T02:25:31;7.65;;;4.95;;
15240;SDS011;7723;52.170;9.978;2022-08-25T02:27:59;7.97;;;4.90;;
15240;SDS011;7723;52.170;9.978;2022-08-25T02:30:26;7.65;;;5.05;;
15240;SDS011;7723;52.170;9.978;2022-08-25T02:32:53;7.47;;;4.78;;
15240;SDS011;7723;52.170;9.978;2022-08-25T02:35:20;7.40;;;4.57;;
15240;SDS011;7723;52.170;9.978;2022-08-25T02:37:49;7.30;;;5.05;;
15240;SDS011;7723;52.170;9.978;2022-08-25T02:40:17;8.20;;;5.50;;
15240;SDS011;7723;52.170;9.978;2022-08-25T02:42:48;7.70;;;5.25;;
15240;SDS011;7723;52.170;9.978;2022-08-25T02:45:16;8.65;;;5.13;;
15240;SDS011;7723;52.170;9.978;2022-08-25T02:47:44;7.82;;;5.13;;
15240;SDS011;7723;52.170;9.978;2022-08-25T02:50:13;9.10;;;4.93;;
15240;SDS011;7723;52.170;9.978;2022-08-25T02:52:41;11.63;;;6.10;;
15240;SDS011;7723;52.170;9.978;2022-08-25T02:55:09;8.00;;;5.05;;
15240;SDS011;7723;52.170;9.978;2022-08-25T02:57:38;7.70;;;5.00;;
15240;SDS011;7723;52.170;9.978;2022-08-25T03:00:08;9.00;;;5.82;;
15240;SDS011;7723;52.170;9.978;2022-08-25T03:02:37;9.13;;;4.78;;
15240;SDS011;7723;52.170;9.978;2022-08-25T03:05:05;9.57;;;5.50;;
15240;SDS011;7723;52.170;9.978;2022-08-25T03:07:33;8.60;;;5.18;;
15240;SDS011;7723;52.170;9.978;2022-08-25T03:10:06;10.20;;;5.22;;
15240;SDS011;7723;52.170;9.978;2022-08-25T03:12:35;9.02;;;5.18;;
15240;SDS011;7723;52.170;9.978;2022-08-25T03:15:02;8.88;;;5.72;;
15240;SDS011;7723;52.170;9.978;2022-08-25T03:17:32;7.28;;;4.70;;
15240;SDS011;7723;52.170;9.978;2022-08-25T03:19:59;9.50;;;5.43;;
15240;SDS011;7723;52.170;9.978;2022-08-25T03:22:26;8.48;;;4.93;;
15240;SDS011;7723;52.170;9.978;2022-08-25T03:24:53;7.85;;;5.68;;
15240;SDS011;7723;52.170;9.978;2022-08-25T03:27:40;7.72;;;4.68;;
15240;SDS011;7723;52.170;9.978;2022-08-25T03:30:07;10.10;;;5.35;;
15240;SDS011;7723;52.170;9.978;2022-08-25T03:32:36;11.25;;;5.78;;
15240;SDS011;7723;52.170;9.978;2022-08-25T03:35:04;7.05;;;5.30;;
15240;SDS011;7723;52.170;9.978;2022-08-25T03:37:32;7.35;;;5.30;;
15240;SDS011;7723;52.170;9.978;2022-08-25T03:40:00;12.50;;;6.20;;
15240;SDS011;7723;52.170;9.978;2022-08-25T03:42:27;8.32;;;5.53;;
15240;SDS011;7723;52.170;9.978;2022-08-25T03:44:55;7.00;;;4.95;;
15240;SDS011;7723;52.170;9.978;2022-08-25T03:47:22;9.18;;;5.03;;
15240;SDS011;7723;52.170;9.978;2022-08-25T03:49:54;8.50;;;5.13;;
15240;SDS011;7723;52.170;9.978;2022-08-25T03:52:21;8.90;;;5.80;;
15240;SDS011;7723;52.170;9.978;2022-08-25T03:54:48;7.78;;;5.55;;
15240;SDS011;7723;52.170;9.978;2022-08-25T03:57:16;10.50;;;5.80;;
15240;SDS011;7723;52.170;9.978;2022-08-25T03:59:44;8.35;;;5.07;;
15240;SDS011;7723;52.170;9.978;2022-08-25T04:02:12;8.55;;;5.15;;
15240;SDS011;7723;52.170;9.978;2022-08-25T04:04:39;10.75;;;5.30;;
15240;SDS011;7723;52.170;9.978;2022-08-25T04:07:07;11.63;;;5.82;;
15240;SDS011;7723;52.170;9.978;2022-08-25T04:09:35;7.85;;;5.45;;
15240;SDS011;7723;52.170;9.978;2022-08-25T04:12:02;8.80;;;5.25;;
15240;SDS011;7723;52.170;9.978;2022-08-25T04:14:29;9.90;;;5.32;;
15240;SDS011;7723;52.170;9.978;2022-08-25T04:16:56;8.27;;;5.38;;
15240;SDS011;7723;52.170;9.978;2022-08-25T04:19:24;10.88;;;5.63;;
15240;SDS011;7723;52.170;9.978;2022-08-25T04:21:51;9.27;;;5.80;;
15240;SDS011;7723;52.170;9.978;2022-08-25T04:24:20;9.43;;;5.93;;
15240;SDS011;7723;52.170;9.978;2022-08-25T04:26:48;7.25;;;5.40;;
15240;SDS011;7723;52.170;9.978;2022-08-25T04:29:17;9.40;;;5.78;;
15240;SDS011;7723;52.170;9.978;2022-08-25T04:31:46;9.30;;;5.88;;
15240;SDS011;7723;52.170;9.978;2022-08-25T04:34:14;10.05;;;5.43;;
15240;SDS011;7723;52.170;9.978;2022-08-25T04:36:42;8.95;;;6.18;;
15240;SDS011;7723;52.170;9.978;2022-08-25T04:39:10;9.07;;;5.97;;
15240;SDS011;7723;52.170;9.978;2022-08-25T04:41:39;10.32;;;5.63;;
15240;SDS011;7723;52.170;9.978;2022-08-25T04:44:06;10.30;;;6.25;;
15240;SDS011;7723;52.170;9.978;2022-08-25T04:46:33;10.18;;;6.03;;
15240;SDS011;7723;52.170;9.978;2022-08-25T04:49:01;8.30;;;5.53;;
15240;SDS011;7723;52.170;9.978;2022-08-25T04:51:30;13.48;;;6.55;;
15240;SDS011;7723;52.170;9.978;2022-08-25T04:53:59;9.88;;;6.82;;
15240;SDS011;7723;52.170;9.978;2022-08-25T04:56:29;11.65;;;6.88;;
15240;SDS011;7723;52.170;9.978;2022-08-25T04:59:01;14.30;;;7.72;;
15240;SDS011;7723;52.170;9.978;2022-08-25T05:01:29;9.95;;;6.50;;
15240;SDS011;7723;52.170;9.978;2022-08-25T05:03:57;11.73;;;6.63;;
15240;SDS011;7723;52.170;9.978;2022-08-25T05:06:25;13.75;;;8.02;;
15240;SDS011;7723;52.170;9.978;2022-08-25T05:08:53;13.05;;;7.32;;
15240;SDS011;7723;52.170;9.978;2022-08-25T05:11:21;14.02;;;6.93;;
15240;SDS011;7723;52.170;9.978;2022-08-25T05:13:50;13.00;;;7.57;;
15240;SDS011;7723;52.170;9.978;2022-08-25T05:16:20;11.18;;;7.55;;
15240;SDS011;7723;52.170;9.978;2022-08-25T05:18:49;12.15;;;7.90;;
15240;SDS011;7723;52.170;9.978;2022-08-25T05:21:17;11.60;;;7.70;;
15240;SDS011;7723;52.170;9.978;2022-08-25T05:23:46;10.77;;;7.68;;
15240;SDS011;7723;52.170;9.978;2022-08-25T05:26:15;16.80;;;7.97;;
15240;SDS011;7723;52.170;9.978;2022-08-25T05:28:44;12.80;;;7.40;;
15240;SDS011;7723;52.170;9.978;2022-08-25T05:31:12;13.00;;;8.07;;
15240;SDS011;7723;52.170;9.978;2022-08-25T05:33:42;13.05;;;7.28;;
15240;SDS011;7723;52.170;9.978;2022-08-25T05:36:09;11.65;;;7.93;;
15240;SDS011;7723;52.170;9.978;2022-08-25T05:38:37;9.48;;;7.35;;
15240;SDS011;7723;52.170;9.978;2022-08-25T05:41:05;10.55;;;7.13;;
15240;SDS011;7723;52.170;9.978;2022-08-25T05:43:35;13.70;;;8.05;;
15240;SDS011;7723;52.170;9.978;2022-08-25T05:46:02;14.02;;;8.63;;
15240;SDS011;7723;52.170;9.978;2022-08-25T05:48:29;12.45;;;8.63;;
15240;SDS011;7723;52.170;9.978;2022-08-25T05:50:58;11.43;;;8.15;;
15240;SDS011;7723;52.170;9.978;2022-08-25T05:53:27;12.50;;;7.95;;
15240;SDS011;7723;52.170;9.978;2022-08-25T05:55:56;10.30;;;7.15;;
15240;SDS011;7723;52.170;9.978;2022-08-25T05:58:24;11.05;;;7.95;;
15240;SDS011;7723;52.170;9.978;2022-08-25T06:00:53;12.48;;;7.85;;
15240;SDS011;7723;52.170;9.978;2022-08-25T06:03:21;10.98;;;7.25;;
15240;SDS011;7723;52.170;9.978;2022-08-25T06:05:47;10.80;;;7.85;;
15240;SDS011;7723;52.170;9.978;2022-08-25T06:08:15;15.93;;;7.80;;
15240;SDS011;7723;52.170;9.978;2022-08-25T06:10:43;12.32;;;7.35;;
15240;SDS011;7723;52.170;9.978;2022-08-25T06:13:10;10.85;;;7.70;;
15240;SDS011;7723;52.170;9.978;2022-08-25T06:15:37;10.90;;;7.85;;
15240;SDS011;7723;52.170;9.978;2022-08-25T06:18:04;11.98;;;7.75;;
15240;SDS011;7723;52.170;9.978;2022-08-25T06:20:31;10.75;;;7.55;;
15240;SDS011;7723;52.170;9.978;2022-08-25T06:22:58;12.18;;;7.95;;
15240;SDS011;7723;52.170;9.978;2022-08-25T06:25:27;10.50;;;7.97;;
15240;SDS011;7723;52.170;9.978;2022-08-25T06:27:57;10.77;;;6.97;;
15240;SDS011;7723;52.170;9.978;2022-08-25T06:30:24;13.57;;;8.18;;
15240;SDS011;7723;52.170;9.978;2022-08-25T06:32:52;12.32;;;8.30;;
15240;SDS011;7723;52.170;9.978;2022-08-25T06:35:19;12.38;;;7.72;;
15240;SDS011;7723;52.170;9.978;2022-08-25T06:37:46;11.15;;;7.82;;
15240;SDS011;7723;52.170;9.978;2022-08-25T06:40:15;11.63;;;7.88;;
15240;SDS011;7723;52.170;9.978;2022-08-25T06:42:47;11.02;;;7.30;;
15240;SDS011;7723;52.170;9.978;2022-08-25T06:45:14;11.27;;;7.57;;
15240;SDS011;7723;52.170;9.978;2022-08-25T06:47:42;10.68;;;7.82;;
15240;SDS011;7723;52.170;9.978;2022-08-25T06:50:09;10.93;;;8.05;;
15240;SDS011;7723;52.170;9.978;2022-08-25T06:52:36;10.57;;;8.27;;
15240;SDS011;7723;52.170;9.978;2022-08-25T06:55:04;10.48;;;7.72;;
15240;SDS011;7723;52.170;9.978;2022-08-25T06:57:32;11.35;;;7.80;;
15240;SDS011;7723;52.170;9.978;2022-08-25T07:00:01;11.65;;;7.35;;
15240;SDS011;7723;52.170;9.978;2022-08-25T07:02:30;13.65;;;7.82;;
15240;SDS011;7723;52.170;9.978;2022-08-25T07:04:57;9.10;;;7.95;;
15240;SDS011;7723;52.170;9.978;2022-08-25T07:07:24;11.07;;;8.57;;
15240;SDS011;7723;52.170;9.978;2022-08-25T07:09:51;12.07;;;8.18;;
15240;SDS011;7723;52.170;9.978;2022-08-25T07:12:19;11.43;;;7.60;;
15240;SDS011;7723;52.170;9.978;2022-08-25T07:14:48;8.13;;;7.20;;
15240;SDS011;7723;52.170;9.978;2022-08-25T07:17:16;8.93;;;7.43;;
15240;SDS011;7723;52.170;9.978;2022-08-25T07:19:44;9.00;;;8.10;;
15240;SDS011;7723;52.170;9.978;2022-08-25T07:22:11;10.90;;;7.57;;
15240;SDS011;7723;52.170;9.978;2022-08-25T07:24:38;7.78;;;7.03;;
15240;SDS011;7723;52.170;9.978;2022-08-25T07:27:06;9.98;;;7.57;;
15240;SDS011;7723;52.170;9.978;2022-08-25T07:29:33;7.60;;;6.85;;
15240;SDS011;7723;52.170;9.978;2022-08-25T07:32:03;10.13;;;7.40;;
15240;SDS011;7723;52.170;9.978;2022-08-25T07:34:32;12.07;;;7.70;;
15240;SDS011;7723;52.170;9.978;2022-08-25T07:37:17;8.95;;;7.53;;
15240;SDS011;7723;52.170;9.978;2022-08-25T07:39:45;12.75;;;8.48;;
15240;SDS011;7723;52.170;9.978;2022-08-25T07:42:12;9.55;;;8.35;;
15240;SDS011;7723;52.170;9.978;2022-08-25T07:44:39;10.65;;;7.80;;
15240;SDS011;7723;52.170;9.978;2022-08-25T07:47:06;9.15;;;8.02;;
15240;SDS011;7723;52.170;9.978;2022-08-25T07:49:35;10.25;;;7.80;;
15240;SDS011;7723;52.170;9.978;2022-08-25T07:52:02;9.40;;;8.32;;
15240;SDS011;7723;52.170;9.978;2022-08-25T07:54:29;9.80;;;7.47;;
15240;SDS011;7723;52.170;9.978;2022-08-25T07:56:57;10.32;;;8.48;;
15240;SDS011;7723;52.170;9.978;2022-08-25T07:59:24;9.60;;;8.25;;
15240;SDS011;7723;52.170;9.978;2022-08-25T08:01:51;10.02;;;8.30;;
15240;SDS011;7723;52.170;9.978;2022-08-25T08:04:18;14.25;;;8.73;;
15240;SDS011;7723;52.170;9.978;2022-08-25T08:06:46;10.50;;;8.32;;
15240;SDS011;7723;52.170;9.978;2022-08-25T08:09:14;9.18;;;7.82;;
15240;SDS011;7723;52.170;9.978;2022-08-25T08:11:41;10.63;;;8.93;;
15240;SDS011;7723;52.170;9.978;2022-08-25T08:14:09;11.02;;;8.20;;
15240;SDS011;7723;52.170;9.978;2022-08-25T08:16:37;11.68;;;8.30;;
15240;SDS011;7723;52.170;9.978;2022-08-25T08:19:05;12.38;;;8.95;;
15240;SDS011;7723;52.170;9.978;2022-08-25T08:21:33;11.00;;;8.68;;
15240;SDS011;7723;52.170;9.978;2022-08-25T08:24:03;11.77;;;8.43;;
15240;SDS011;7723;52.170;9.978;2022-08-25T08:26:30;9.57;;;8.32;;
15240;SDS011;7723;52.170;9.978;2022-08-25T08:28:58;14.55;;;8.38;;
15240;SDS011;7723;52.170;9.978;2022-08-25T08:31:25;9.90;;;7.85;;
15240;SDS011;7723;52.170;9.978;2022-08-25T08:33:53;12.10;;;8.32;;
15240;SDS011;7723;52.170;9.978;2022-08-25T08:36:22;12.95;;;8.93;;
15240;SDS011;7723;52.170;9.978;2022-08-25T08:38:51;8.88;;;7.70;;
15240;SDS011;7723;52.170;9.978;2022-08-25T08:41:39;9.30;;;8.15;;
15240;SDS011;7723;52.170;9.978;2022-08-25T08:44:41;16.38;;;8.50;;
15240;SDS011;7723;52.170;9.978;2022-08-25T08:47:26;9.95;;;7.85;;
15240;SDS011;7723;52.170;9.978;2022-08-25T08:50:02;10.35;;;7.60;;
15240;SDS011;7723;52.170;9.978;2022-08-25T08:52:38;8.95;;;8.00;;
15240;SDS011;7723;52.170;9.978;2022-08-25T08:55:22;11.25;;;8.18;;
15240;SDS011;7723;52.170;9.978;2022-08-25T08:57:58;10.50;;;7.78;;
15240;SDS011;7723;52.170;9.978;2022-08-25T09:00:28;11.60;;;7.97;;
15240;SDS011;7723;52.170;9.978;2022-08-25T09:02:59;10.18;;;8.27;;
15240;SDS011;7723;52.170;9.978;2022-08-25T09:05:31;10.45;;;8.57;;
15240;SDS011;7723;52.170;9.978;2022-08-25T09:08:08;10.98;;;7.65;;
15240;SDS011;7723;52.170;9.978;2022-08-25T09:10:39;12.95;;;7.90;;
15240;SDS011;7723;52.170;9.978;2022-08-25T09:13:20;12.50;;;7.38;;
15240;SDS011;7723;52.170;9.978;2022-08-25T09:15:58;8.38;;;7.53;;
15240;SDS011;7723;52.170;9.978;2022-08-25T09:18:49;12.43;;;7.47;;
15240;SDS011;7723;52.170;9.978;2022-08-25T09:21:22;9.48;;;6.82;;
15240;SDS011;7723;52.170;9.978;2022-08-25T09:24:00;9.80;;;6.90;;
15240;SDS011;7723;52.170;9.978;2022-08-25T09:26:36;10.20;;;7.43;;
15240;SDS011;7723;52.170;9.978;2022-08-25T09:29:11;10.23;;;7.72;;
15240;SDS011;7723;52.170;9.978;2022-08-25T09:31:41;10.15;;;7.20;;
15240;SDS011;7723;52.170;9.978;2022-08-25T09:34:10;10.55;;;7.53;;
15240;SDS011;7723;52.170;9.978;2022-08-25T09:36:41;8.35;;;7.53;;
15240;SDS011;7723;52.170;9.978;2022-08-25T09:39:13;10.95;;;9.18;;
15240;SDS011;7723;52.170;9.978;2022-08-25T09:41:42;13.00;;;8.75;;
15240;SDS011;7723;52.170;9.978;2022-08-25T09:44:20;10.30;;;8.63;;
15240;SDS011;7723;52.170;9.978;2022-08-25T09:46:57;11.48;;;8.82;;
15240;SDS011;7723;52.170;9.978;2022-08-25T09:49:35;10.07;;;8.02;;
15240;SDS011;7723;52.170;9.978;2022-08-25T09:52:17;9.77;;;8.30;;
15240;SDS011;7723;52.170;9.978;2022-08-25T09:54:56;12.23;;;8.55;;
15240;SDS011;7723;52.170;9.978;2022-08-25T09:57:32;13.13;;;8.23;;
15240;SDS011;7723;52.170;9.978;2022-08-25T10:00:14;11.27;;;8.15;;
15240;SDS011;7723;52.170;9.978;2022-08-25T10:02:44;14.27;;;8.00;;
15240;SDS011;7723;52.170;9.978;2022-08-25T10:05:26;11.88;;;8.07;;
15240;SDS011;7723;52.170;9.978;2022-08-25T10:07:59;12.02;;;6.82;;
15240;SDS011;7723;52.170;9.978;2022-08-25T10:10:29;9.75;;;7.65;;
15240;SDS011;7723;52.170;9.978;2022-08-25T10:12:58;10.82;;;7.85;;
15240;SDS011;7723;52.170;9.978;2022-08-25T10:15:30;9.43;;;7.20;;
15240;SDS011;7723;52.170;9.978;2022-08-25T10:23:38;14.73;;;8.35;;
15240;SDS011;7723;52.170;9.978;2022-08-25T10:26:10;10.60;;;8.05;;
15240;SDS011;7723;52.170;9.978;2022-08-25T10:28:53;15.43;;;7.68;;
15240;SDS011;7723;52.170;9.978;2022-08-25T10:31:32;8.85;;;7.13;;
15240;SDS011;7723;52.170;9.978;2022-08-25T10:34:07;8.57;;;7.10;;
15240;SDS011;7723;52.170;9.978;2022-08-25T10:36:45;19.42;;;8.07;;
15240;SDS011;7723;52.170;9.978;2022-08-25T10:39:22;11.05;;;7.32;;
15240;SDS011;7723;52.170;9.978;2022-08-25T10:41:59;10.82;;;7.55;;
15240;SDS011;7723;52.170;9.978;2022-08-25T10:44:32;10.23;;;7.20;;
15240;SDS011;7723;52.170;9.978;2022-08-25T10:47:30;11.45;;;7.60;;
15240;SDS011;7723;52.170;9.978;2022-08-25T10:50:12;9.43;;;7.43;;
15240;SDS011;7723;52.170;9.978;2022-08-25T10:53:04;9.90;;;6.78;;
15240;SDS011;7723;52.170;9.978;2022-08-25T10:55:51;9.73;;;7.25;;
15240;SDS011;7723;52.170;9.978;2022-08-25T10:58:29;10.85;;;6.85;;
15240;SDS011;7723;52.170;9.978;2022-08-25T11:01:10;11.45;;;7.32;;
15240;SDS011;7723;52.170;9.978;2022-08-25T11:03:47;14.23;;;7.20;;
15240;SDS011;7723;52.170;9.978;2022-08-25T11:06:19;10.85;;;6.80;;
15240;SDS011;7723;52.170;9.978;2022-08-25T11:08:51;11.13;;;6.95;;
15240;SDS011;7723;52.170;9.978;2022-08-25T11:11:23;9.20;;;7.50;;
15240;SDS011;7723;52.170;9.978;2022-08-25T11:13:56;9.40;;;6.90;;
15240;SDS011;7723;52.170;9.978;2022-08-25T11:16:30;14.63;;;7.30;;
15240;SDS011;7723;52.170;9.978;2022-08-25T11:19:06;10.80;;;7.80;;
15240;SDS011;7723;52.170;9.978;2022-08-25T11:21:43;10.43;;;7.28;;
15240;SDS011;7723;52.170;9.978;2022-08-25T11:24:28;11.95;;;6.75;;
15240;SDS011;7723;52.170;9.978;2022-08-25T11:27:08;14.57;;;7.63;;
15240;SDS011;7723;52.170;9.978;2022-08-25T11:29:50;12.82;;;7.53;;
15240;SDS011;7723;52.170;9.978;2022-08-25T11:32:25;9.90;;;7.40;;
15240;SDS011;7723;52.170;9.978;2022-08-25T11:35:00;12.60;;;7.43;;
15240;SDS011;7723;52.170;9.978;2022-08-25T11:37:29;12.27;;;7.93;;
15240;SDS011;7723;52.170;9.978;2022-08-25T11:40:03;12.05;;;7.25;;
15240;SDS011;7723;52.170;9.978;2022-08-25T11:42:53;14.18;;;7.13;;
15240;SDS011;7723;52.170;9.978;2022-08-25T11:45:45;6.93;;;6.22;;
15240;SDS011;7723;52.170;9.978;2022-08-25T11:48:23;9.30;;;6.40;;
15240;SDS011;7723;52.170;9.978;2022-08-25T11:51:03;11.98;;;7.65;;
15240;SDS011;7723;52.170;9.978;2022-08-25T11:53:33;11.02;;;6.80;;
15240;SDS011;7723;52.170;9.978;2022-08-25T11:56:02;8.82;;;6.60;;
15240;SDS011;7723;52.170;9.978;2022-08-25T11:58:33;8.95;;;6.22;;
15240;SDS011;7723;52.170;9.978;2022-08-25T12:01:05;9.05;;;6.80;;
15240;SDS011;7723;52.170;9.978;2022-08-25T12:03:46;10.27;;;6.97;;
15240;SDS011;7723;52.170;9.978;2022-08-25T12:06:28;9.38;;;6.88;;
15240;SDS011;7723;52.170;9.978;2022-08-25T12:09:14;9.88;;;6.00;;
15240;SDS011;7723;52.170;9.978;2022-08-25T12:11:55;10.02;;;6.97;;
15240;SDS011;7723;52.170;9.978;2022-08-25T12:14:37;12.98;;;7.07;;
15240;SDS011;7723;52.170;9.978;2022-08-25T12:17:19;8.60;;;7.30;;
15240;SDS011;7723;52.170;9.978;2022-08-25T12:19:53;8.45;;;7.10;;
15240;SDS011;7723;52.170;9.978;2022-08-25T12:25:27;10.45;;;6.82;;
15240;SDS011;7723;52.170;9.978;2022-08-25T12:28:23;6.78;;;6.13;;
15240;SDS011;7723;52.170;9.978;2022-08-25T12:31:00;11.02;;;6.63;;
15240;SDS011;7723;52.170;9.978;2022-08-25T12:33:35;10.65;;;7.55;;
15240;SDS011;7723;52.170;9.978;2022-08-25T12:36:23;9.43;;;6.78;;
15240;SDS011;7723;52.170;9.978;2022-08-25T12:38:54;11.80;;;7.35;;
15240;SDS011;7723;52.170;9.978;2022-08-25T12:41:52;9.48;;;7.05;;
15240;SDS011;7723;52.170;9.978;2022-08-25T12:44:35;9.85;;;7.32;;
15240;SDS011;7723;52.170;9.978;2022-08-25T12:47:13;12.18;;;6.85;;
15240;SDS011;7723;52.170;9.978;2022-08-25T12:53:06;9.38;;;6.97;;
15240;SDS011;7723;52.170;9.978;2022-08-25T12:55:39;12.60;;;6.88;;
15240;SDS011;7723;52.170;9.978;2022-08-25T12:58:11;14.38;;;6.97;;
15240;SDS011;7723;52.170;9.978;2022-08-25T13:00:46;11.18;;;6.10;;
15240;SDS011;7723;52.170;9.978;2022-08-25T13:03:34;12.65;;;6.80;;
15240;SDS011;7723;52.170;9.978;2022-08-25T13:06:19;11.30;;;6.45;;
15240;SDS011;7723;52.170;9.978;2022-08-25T13:09:09;8.00;;;5.60;;
15240;SDS011;7723;52.170;9.978;2022-08-25T13:12:15;12.20;;;6.90;;
15240;SDS011;7723;52.170;9.978;2022-08-25T13:14:51;8.00;;;5.93;;
15240;SDS011;7723;52.170;9.978;2022-08-25T13:17:26;10.55;;;6.68;;
15240;SDS011;7723;52.170;9.978;2022-08-25T13:20:14;12.63;;;6.10;;
15240;SDS011;7723;52.170;9.978;2022-08-25T13:22:44;10.98;;;6.72;;
15240;SDS011;7723;52.170;9.978;2022-08-25T13:25:14;9.75;;;5.93;;
15240;SDS011;7723;52.170;9.978;2022-08-25T13:27:47;8.57;;;5.75;;
15240;SDS011;7723;52.170;9.978;2022-08-25T13:30:24;8.50;;;6.07;;
15240;SDS011;7723;52.170;9.978;2022-08-25T13:32:53;7.05;;;5.60;;
15240;SDS011;7723;52.170;9.978;2022-08-25T13:35:21;7.50;;;5.80;;
15240;SDS011;7723;52.170;9.978;2022-08-25T13:37:50;7.95;;;6.05;;
15240;SDS011;7723;52.170;9.978;2022-08-25T13:40:21;7.55;;;5.97;;
15240;SDS011;7723;52.170;9.978;2022-08-25T13:42:52;9.40;;;6.22;;
15240;SDS011;7723;52.170;9.978;2022-08-25T13:45:22;9.27;;;5.90;;
15240;SDS011;7723;52.170;9.978;2022-08-25T13:47:51;10.50;;;5.90;;
15240;SDS011;7723;52.170;9.978;2022-08-25T13:50:20;11.27;;;6.07;;
15240;SDS011;7723;52.170;9.978;2022-08-25T13:52:56;8.50;;;6.20;;
15240;SDS011;7723;52.170;9.978;2022-08-25T13:55:27;12.18;;;6.00;;
15240;SDS011;7723;52.170;9.978;2022-08-25T13:58:00;11.18;;;6.10;;
15240;SDS011;7723;52.170;9.978;2022-08-25T14:00:29;11.05;;;5.93;;
15240;SDS011;7723;52.170;9.978;2022-08-25T14:03:00;6.68;;;5.60;;
15240;SDS011;7723;52.170;9.978;2022-08-25T14:05:34;9.38;;;5.38;;
15240;SDS011;7723;52.170;9.978;2022-08-25T14:08:05;12.20;;;6.28;;
15240;SDS011;7723;52.170;9.978;2022-08-25T14:11:01;11.73;;;6.25;;
15240;SDS011;7723;52.170;9.978;2022-08-25T14:13:33;9.43;;;5.82;;
15240;SDS011;7723;52.170;9.978;2022-08-25T14:16:08;6.50;;;5.90;;
15240;SDS011;7723;52.170;9.978;2022-08-25T14:18:38;10.27;;;5.50;;
15240;SDS011;7723;52.170;9.978;2022-08-25T14:21:13;7.45;;;5.72;;
15240;SDS011;7723;52.170;9.978;2022-08-25T14:23:41;12.82;;;6.60;;
15240;SDS011;7723;52.170;9.978;2022-08-25T14:26:08;11.13;;;6.47;;
15240;SDS011;7723;52.170;9.978;2022-08-25T14:28:37;10.23;;;5.47;;
15240;SDS011;7723;52.170;9.978;2022-08-25T14:31:05;6.53;;;5.45;;
15240;SDS011;7723;52.170;9.978;2022-08-25T14:33:35;8.70;;;5.55;;
15240;SDS011;7723;52.170;9.978;2022-08-25T14:36:05;8.85;;;5.65;;
15240;SDS011;7723;52.170;9.978;2022-08-25T14:38:33;8.23;;;5.93;;
15240;SDS011;7723;52.170;9.978;2022-08-25T14:41:03;7.53;;;5.32;;
15240;SDS011;7723;52.170;9.978;2022-08-25T14:43:30;11.27;;;5.95;;
15240;SDS011;7723;52.170;9.978;2022-08-25T14:45:59;8.20;;;6.07;;
15240;SDS011;7723;52.170;9.978;2022-08-25T14:48:33;8.40;;;5.90;;
15240;SDS011;7723;52.170;9.978;2022-08-25T14:51:05;12.68;;;6.05;;
15240;SDS011;7723;52.170;9.978;2022-08-25T14:53:32;8.63;;;5.78;;
15240;SDS011;7723;52.170;9.978;2022-08-25T14:56:00;10.40;;;6.03;;
15240;SDS011;7723;52.170;9.978;2022-08-25T14:58:27;9.35;;;6.20;;
15240;SDS011;7723;52.170;9.978;2022-08-25T15:00:54;9.40;;;6.57;;
15240;SDS011;7723;52.170;9.978;2022-08-25T15:03:24;8.52;;;5.75;;
15240;SDS011;7723;52.170;9.978;2022-08-25T15:05:55;7.38;;;5.75;;
15240;SDS011;7723;52.170;9.978;2022-08-25T15:08:23;12.10;;;6.20;;
15240;SDS011;7723;52.170;9.978;2022-08-25T15:11:07;13.23;;;6.72;;
15240;SDS011;7723;52.170;9.978;2022-08-25T15:13:34;9.57;;;6.07;;
15240;SDS011;7723;52.170;9.978;2022-08-25T15:16:02;8.57;;;6.03;;
15240;SDS011;7723;52.170;9.978;2022-08-25T15:18:31;7.93;;;5.70;;
15240;SDS011;7723;52.170;9.978;2022-08-25T15:20:58;12.95;;;6.00;;
15240;SDS011;7723;52.170;9.978;2022-08-25T15:23:25;9.10;;;6.07;;
15240;SDS011;7723;52.170;9.978;2022-08-25T15:25:53;6.32;;;5.72;;
15240;SDS011;7723;52.170;9.978;2022-08-25T15:28:21;12.48;;;6.55;;
15240;SDS011;7723;52.170;9.978;2022-08-25T15:30:49;12.30;;;6.13;;
15240;SDS011;7723;52.170;9.978;2022-08-25T15:33:16;14.82;;;7.00;;